createdAt,value
2022-09-04T00:01:38.826Z,15.23
2022-09-04T00:07:59.289Z,15.28
2022-09-04T00:10:47.024Z,15.25
2022-09-04T00:16:46.453Z,14.84
2022-09-04T00:20:11.244Z,15.15
2022-09-04T00:22:56.968Z,14.44
2022-09-04T00:25:47.358Z,14.46
2022-09-04T00:28:35.583Z,14.11
2022-09-04T00:31:19.478Z,15.21
2022-09-04T00:34:10.351Z,15.21
2022-09-04T00:36:50.881Z,15.16
2022-09-04T00:39:32.561Z,14.65
2022-09-04T00:42:27.470Z,15.09
2022-09-04T00:45:23.341Z,15.08
2022-09-04T00:48:42.535Z,15.03
2022-09-04T00:51:32.347Z,14.99
2022-09-04T00:54:26.688Z,14.96
2022-09-04T00:57:45.019Z,14.33
2022-09-04T01:00:20.517Z,14.84
2022-09-04T01:03:32.873Z,14.75
2022-09-04T01:06:30.790Z,13.73
2022-09-04T01:09:49.640Z,14.20
2022-09-04T01:12:37.700Z,13.59
2022-09-04T01:15:24.908Z,14.42
2022-09-04T01:18:05.288Z,13.52
2022-09-04T01:20:59.619Z,13.29
2022-09-04T01:24:07.513Z,14.35
2022-09-04T01:26:51.405Z,14.00
2022-09-04T01:29:36.761Z,14.25
2022-09-04T01:32:23.514Z,13.45
2022-09-04T01:35:08.208Z,12.54
2022-09-04T01:38:02.858Z,12.56
2022-09-04T01:40:47.481Z,13.42
2022-09-04T01:43:37.127Z,12.32
2022-09-04T01:46:42.536Z,13.63
2022-09-04T01:49:31.268Z,13.95
2022-09-04T01:52:19.704Z,12.23
2022-09-04T01:55:00.919Z,13.75
2022-09-04T01:57:42.251Z,13.77
2022-09-04T02:00:17.964Z,13.42
2022-09-04T02:03:02.331Z,13.29
2022-09-04T02:05:56.856Z,12.58
2022-09-04T02:09:10.917Z,11.75
2022-09-04T02:11:57.192Z,13.47
2022-09-04T02:14:40.151Z,13.35
2022-09-04T02:17:19.496Z,12.81
2022-09-04T02:20:10.671Z,11.35
2022-09-04T02:22:51.659Z,11.53
2022-09-04T02:25:32.408Z,13.27
2022-09-04T02:28:24.123Z,12.88
2022-09-04T02:31:06.064Z,13.14
2022-09-04T02:33:51.078Z,12.73
2022-09-04T02:36:33.902Z,12.09
2022-09-04T02:39:18.580Z,11.99
2022-09-04T02:42:06.083Z,12.46
2022-09-04T02:44:52.270Z,13.02
2022-09-04T02:47:37.454Z,12.07
2022-09-04T02:50:30.119Z,11.21
2022-09-04T02:53:18.318Z,12.19
2022-09-04T02:56:12.397Z,12.58
2022-09-04T02:58:54.521Z,13.05
2022-09-04T03:01:36.280Z,12.90
2022-09-04T03:04:19.698Z,12.93
2022-09-04T03:06:55.171Z,11.44
2022-09-04T03:09:34.241Z,12.21
2022-09-04T03:12:19.313Z,12.40
2022-09-04T03:14:59.462Z,12.35
2022-09-04T03:17:34.379Z,12.72
2022-09-04T03:20:19.307Z,12.64
2022-09-04T03:22:58.434Z,11.52
2022-09-04T03:26:14.012Z,12.76
2022-09-04T03:29:15.035Z,12.34
2022-09-04T03:31:58.457Z,12.22
2022-09-04T03:34:48.883Z,12.38
2022-09-04T03:37:43.074Z,12.67
2022-09-04T03:40:37.625Z,12.55
2022-09-04T03:43:31.917Z,12.60
2022-09-04T03:46:19.631Z,12.39
2022-09-04T03:49:09.777Z,12.58
2022-09-04T03:52:00.413Z,12.58
2022-09-04T03:54:46.935Z,12.51
2022-09-04T03:57:29.066Z,12.51
2022-09-04T04:00:11.280Z,12.43
2022-09-04T04:03:33.165Z,12.28
2022-09-04T04:06:26.951Z,11.25
2022-09-04T04:09:21.335Z,11.96
2022-09-04T04:12:16.731Z,12.30
2022-09-04T04:15:16.655Z,12.40
2022-09-04T04:18:21.275Z,11.36
2022-09-04T04:21:10.619Z,12.22
2022-09-04T04:24:23.896Z,11.55
2022-09-04T04:27:15.464Z,12.27
2022-09-04T04:30:07.705Z,11.08
2022-09-04T04:33:21.099Z,11.60
2022-09-04T04:36:12.175Z,12.21
2022-09-04T04:39:18.491Z,10.52
2022-09-04T04:42:24.222Z,11.01
2022-09-04T04:45:29.578Z,12.25
2022-09-04T04:48:50.510Z,12.24
2022-09-04T04:52:19.371Z,12.24
2022-09-04T04:55:43.118Z,10.41
2022-09-04T05:02:54.329Z,12.34
2022-09-04T05:05:47.632Z,12.14
2022-09-04T05:08:33.399Z,12.41
2022-09-04T05:11:14.102Z,12.47
2022-09-04T05:14:01.544Z,12.02
2022-09-04T05:16:52.284Z,11.45
2022-09-04T05:19:33.814Z,12.28
2022-09-04T05:22:15.373Z,12.58
2022-09-04T05:25:04.048Z,12.62
2022-09-04T05:27:56.170Z,12.47
2022-09-04T05:30:44.268Z,12.50
2022-09-04T05:33:21.488Z,12.85
2022-09-04T05:35:59.804Z,12.68
2022-09-04T05:38:37.472Z,13.02
2022-09-04T05:41:33.708Z,13.10
2022-09-04T05:44:26.769Z,13.17
2022-09-04T05:47:10.304Z,13.20
2022-09-04T05:50:21.355Z,13.08
2022-09-04T05:53:49.965Z,13.36
2022-09-04T05:56:50.425Z,13.26
2022-09-04T05:59:44.335Z,13.27
2022-09-04T06:02:45.243Z,13.57
2022-09-04T06:05:44.599Z,12.67
2022-09-04T06:08:33.503Z,13.43
2022-09-04T06:11:38.068Z,13.65
2022-09-04T06:14:31.668Z,13.86
2022-09-04T06:17:27.002Z,13.83
2022-09-04T06:20:19.275Z,14.04
2022-09-04T06:23:16.778Z,14.16
2022-09-04T06:26:20.547Z,14.22
2022-09-04T06:29:43.966Z,13.97
2022-09-04T06:32:49.256Z,13.76
2022-09-04T06:35:36.539Z,14.40
2022-09-04T06:38:34.478Z,14.46
2022-09-04T06:41:36.257Z,14.54
2022-09-04T06:44:28.986Z,14.57
2022-09-04T06:47:16.638Z,14.65
2022-09-04T06:50:14.574Z,14.74
2022-09-04T06:53:04.591Z,14.48
2022-09-04T06:55:45.923Z,14.88
2022-09-04T06:59:01.393Z,14.97
2022-09-04T07:01:46.979Z,15.06
2022-09-04T07:04:34.857Z,14.94
2022-09-04T07:07:23.293Z,14.93
2022-09-04T07:10:09.824Z,15.31
2022-09-04T07:13:35.758Z,15.44
2022-09-04T07:16:40.279Z,15.25
2022-09-04T07:19:52.527Z,15.54
2022-09-04T07:23:00.670Z,15.71
2022-09-04T07:25:44.656Z,15.22
2022-09-04T07:28:34.752Z,15.58
2022-09-04T07:31:08.856Z,15.94
2022-09-04T07:33:49.843Z,15.78
2022-09-04T07:36:29.864Z,15.79
2022-09-04T07:39:14.041Z,16.20
2022-09-04T07:41:54.773Z,16.23
2022-09-04T07:44:33.963Z,16.31
2022-09-04T07:47:14.416Z,16.08
2022-09-04T07:50:05.834Z,15.68
2022-09-04T07:53:00.252Z,16.52
2022-09-04T07:55:54.460Z,16.59
2022-09-04T07:59:13.515Z,15.16
2022-09-04T08:02:07.934Z,16.62
2022-09-04T08:05:22.181Z,16.87
2022-09-04T08:08:36.487Z,16.79
2022-09-04T08:11:57.528Z,17.10
2022-09-04T08:14:42.542Z,17.17
2022-09-04T08:17:53.169Z,17.11
2022-09-04T08:20:46.133Z,17.45
2022-09-04T08:23:59.978Z,17.39
2022-09-04T08:26:41.834Z,16.78
2022-09-04T08:29:35.186Z,17.07
2022-09-04T08:32:37.855Z,17.63
2022-09-04T08:35:19.252Z,17.81
2022-09-04T08:38:01.633Z,17.88
2022-09-04T08:41:16.620Z,17.66
2022-09-04T08:44:24.331Z,18.85
2022-09-04T08:47:41.375Z,19.14
2022-09-04T08:51:00.622Z,18.71
2022-09-04T08:54:10.020Z,18.53
2022-09-04T08:56:48.836Z,18.55
2022-09-04T09:00:03.488Z,18.65
2022-09-04T09:03:41.825Z,18.41
2022-09-04T09:07:04.127Z,18.63
2022-09-04T09:10:38.593Z,19.27
2022-09-04T09:14:01.246Z,19.64
2022-09-04T09:16:44.985Z,19.14
2022-09-04T09:19:44.381Z,19.50
2022-09-04T09:22:38.925Z,19.45
2022-09-04T09:25:45.895Z,19.48
2022-09-04T09:29:26.267Z,19.58
2022-09-04T09:32:51.286Z,19.94
2022-09-04T09:36:16.251Z,19.83
2022-09-04T09:39:31.532Z,20.10
2022-09-04T09:43:11.587Z,20.26
2022-09-04T09:46:21.906Z,20.17
2022-09-04T09:49:41.980Z,20.07
2022-09-04T09:52:59.589Z,19.95
2022-09-04T09:56:14.162Z,19.86
2022-09-04T09:59:47.032Z,19.82
2022-09-04T10:03:08.018Z,19.86
2022-09-04T10:06:27.202Z,20.00
2022-09-04T10:09:56.663Z,20.32
2022-09-04T10:13:32.183Z,20.21
2022-09-04T10:17:04.539Z,20.14
2022-09-04T10:20:29.655Z,20.32
2022-09-04T10:23:43.424Z,20.18
2022-09-04T10:26:49.725Z,20.41
2022-09-04T10:29:52.084Z,20.41
2022-09-04T10:33:18.859Z,20.37
2022-09-04T10:36:06.482Z,19.94
2022-09-04T10:38:59.407Z,20.49
2022-09-04T10:42:06.969Z,20.41
2022-09-04T10:44:58.926Z,20.62
2022-09-04T10:48:15.216Z,20.67
2022-09-04T10:51:34.682Z,19.05
2022-09-04T10:54:35.347Z,20.77
2022-09-04T10:57:24.884Z,20.87
2022-09-04T11:00:08.209Z,20.90
2022-09-04T11:03:19.774Z,20.93
2022-09-04T11:06:35.458Z,21.06
2022-09-04T11:10:00.521Z,20.25
2022-09-04T11:13:08.368Z,21.16
2022-09-04T11:15:55.834Z,21.28
2022-09-04T11:19:05.192Z,21.39
2022-09-04T11:22:25.910Z,21.48
2022-09-04T11:25:32.248Z,21.37
2022-09-04T11:28:32.655Z,21.44
2022-09-04T11:31:22.734Z,21.68
2022-09-04T11:34:26.043Z,22.00
2022-09-04T11:37:25.199Z,22.00
2022-09-04T11:40:20.115Z,22.02
2022-09-04T11:43:07.995Z,22.16
2022-09-04T11:46:05.205Z,22.13
2022-09-04T11:49:40.045Z,22.08
2022-09-04T11:52:32.919Z,22.05
2022-09-04T11:55:31.607Z,22.00
2022-09-04T11:58:20.581Z,21.98
2022-09-04T12:01:04.167Z,22.02
2022-09-04T12:04:10.246Z,22.17
2022-09-04T12:06:56.486Z,22.30
2022-09-04T12:09:46.243Z,22.31
2022-09-04T12:12:37.168Z,22.18
2022-09-04T12:15:54.395Z,22.32
2022-09-04T12:19:05.334Z,22.31
2022-09-04T12:22:03.122Z,22.35
2022-09-04T12:25:18.330Z,22.23
2022-09-04T12:28:18.501Z,22.32
2022-09-04T12:31:04.598Z,22.37
2022-09-04T12:33:57.661Z,22.37
2022-09-04T12:37:20.725Z,22.25
2022-09-04T12:40:14.212Z,22.31
2022-09-04T12:42:52.638Z,22.38
2022-09-04T12:45:29.612Z,22.31
2022-09-04T12:48:13.558Z,22.36
2022-09-04T12:50:54.481Z,22.35
2022-09-04T12:53:50.492Z,22.34
2022-09-04T12:56:30.455Z,22.37
2022-09-04T12:59:23.643Z,22.45
2022-09-04T13:02:01.758Z,22.54
2022-09-04T13:04:47.258Z,22.50
2022-09-04T13:07:36.279Z,22.58
2022-09-04T13:10:19.027Z,22.57
2022-09-04T13:13:00.445Z,22.56
2022-09-04T13:15:44.058Z,22.56
2022-09-04T13:18:27.179Z,22.60
2022-09-04T13:21:09.978Z,22.56
2022-09-04T13:24:00.708Z,22.59
2022-09-04T13:26:46.300Z,22.62
2022-09-04T13:29:27.809Z,22.59
2022-09-04T13:32:08.706Z,22.57
2022-09-04T13:34:48.531Z,22.59
2022-09-04T13:37:28.268Z,22.65
2022-09-04T13:40:39.198Z,22.66
2022-09-04T13:43:41.555Z,22.66
2022-09-04T13:46:15.048Z,22.68
2022-09-04T13:48:52.349Z,22.81
2022-09-04T13:51:25.458Z,22.79
2022-09-04T13:54:05.246Z,22.71
2022-09-04T13:56:41.101Z,22.67
2022-09-04T13:59:17.306Z,22.68
2022-09-04T14:01:49.475Z,22.70
2022-09-04T14:04:26.680Z,22.72
2022-09-04T14:07:07.132Z,22.75
2022-09-04T14:09:42.099Z,22.73
2022-09-04T14:12:46.364Z,22.71
2022-09-04T14:16:02.042Z,22.67
2022-09-04T14:19:10.956Z,21.93
2022-09-04T14:22:06.729Z,22.68
2022-09-04T14:24:44.350Z,22.66
2022-09-04T14:27:26.394Z,22.60
2022-09-04T14:30:07.550Z,22.64
2022-09-04T14:33:07.573Z,22.67
2022-09-04T14:35:47.103Z,22.42
2022-09-04T14:38:32.817Z,22.77
2022-09-04T14:41:12.306Z,22.79
2022-09-04T14:43:59.676Z,22.80
2022-09-04T14:46:38.475Z,22.76
2022-09-04T14:49:11.814Z,22.78
2022-09-04T14:51:43.816Z,22.73
2022-09-04T14:54:19.950Z,22.73
2022-09-04T14:56:51.994Z,22.78
2022-09-04T14:59:29.291Z,22.78
2022-09-04T15:02:19.502Z,22.85
2022-09-04T15:05:00.574Z,22.79
2022-09-04T15:07:56.039Z,22.79
2022-09-04T15:10:33.156Z,22.80
2022-09-04T15:13:37.583Z,22.80
2022-09-04T15:16:22.995Z,22.58
2022-09-04T15:19:05.356Z,22.59
2022-09-04T15:21:43.790Z,22.63
2022-09-04T15:24:25.809Z,22.54
2022-09-04T15:27:03.996Z,22.54
2022-09-04T15:29:39.711Z,22.70
2022-09-04T15:32:14.123Z,22.74
2022-09-04T15:34:44.423Z,22.82
2022-09-04T15:37:23.472Z,22.80
2022-09-04T15:40:04.572Z,22.85
2022-09-04T15:42:46.284Z,22.78
2022-09-04T15:45:24.754Z,22.76
2022-09-04T15:48:20.660Z,22.72
2022-09-04T15:51:12.799Z,22.78
2022-09-04T15:53:49.649Z,22.76
2022-09-04T15:56:37.132Z,22.80
2022-09-04T15:59:15.279Z,22.80
2022-09-04T16:01:51.253Z,22.72
2022-09-04T16:04:30.889Z,22.68
2022-09-04T16:07:23.552Z,22.63
2022-09-04T16:09:55.869Z,22.58
2022-09-04T16:12:29.000Z,22.50
2022-09-04T16:15:02.184Z,22.47
2022-09-04T16:17:35.199Z,22.46
2022-09-04T16:20:16.775Z,22.42
2022-09-04T16:22:50.759Z,22.34
2022-09-04T16:25:29.185Z,22.39
2022-09-04T16:28:03.980Z,22.33
2022-09-04T16:30:47.209Z,22.23
2022-09-04T16:33:28.218Z,22.18
2022-09-04T16:36:04.148Z,22.13
2022-09-04T16:38:42.404Z,22.13
2022-09-04T16:41:17.115Z,22.06
2022-09-04T16:44:12.393Z,21.92
2022-09-04T16:46:51.585Z,21.79
2022-09-04T16:49:27.131Z,21.74
2022-09-04T16:52:22.207Z,21.72
2022-09-04T16:54:55.350Z,21.60
2022-09-04T16:57:34.493Z,21.49
2022-09-04T17:00:07.978Z,21.50
2022-09-04T17:02:44.961Z,21.51
2022-09-04T17:05:34.875Z,20.28
2022-09-04T17:08:15.072Z,21.36
2022-09-04T17:10:47.852Z,21.36
2022-09-04T17:13:29.872Z,21.23
2022-09-04T17:16:03.907Z,21.24
2022-09-04T17:18:33.513Z,21.14
2022-09-04T17:28:04.898Z,21.05
2022-09-04T17:29:08.975Z,20.98
2022-09-04T17:29:13.157Z,20.79
2022-09-04T17:30:25.789Z,20.73
2022-09-04T17:40:00.493Z,20.50
2022-09-04T17:40:36.550Z,20.33
2022-09-04T17:40:50.559Z,20.14
2022-09-04T17:42:09.311Z,20.03
2022-09-04T17:44:50.603Z,20.02
2022-09-04T17:47:29.085Z,19.96
2022-09-04T17:50:00.064Z,19.96
2022-09-04T17:52:32.271Z,19.94
2022-09-04T17:55:08.433Z,19.59
2022-09-04T17:58:04.895Z,19.78
2022-09-04T18:14:11.368Z,18.28
2022-09-04T18:17:12.551Z,18.85
2022-09-04T18:19:47.228Z,18.84
2022-09-04T18:22:51.640Z,18.84
2022-09-04T18:25:29.970Z,18.69
2022-09-04T18:28:12.182Z,18.22
2022-09-04T18:37:06.751Z,18.28
2022-09-04T18:37:24.740Z,18.44
2022-09-04T18:37:46.463Z,18.51
2022-09-04T18:40:21.189Z,18.65
2022-09-04T18:50:20.301Z,18.62
2022-09-04T18:50:22.375Z,18.55
2022-09-04T18:50:50.080Z,18.48
2022-09-04T18:51:58.351Z,18.44
2022-09-04T18:54:39.827Z,18.34
2022-09-04T18:57:32.834Z,17.65
2022-09-04T19:00:09.885Z,18.28
2022-09-04T19:02:53.436Z,18.18
2022-09-04T19:05:36.476Z,18.20
2022-09-04T19:08:23.437Z,18.03
2022-09-04T19:10:55.503Z,17.83
2022-09-04T19:13:36.194Z,17.59
2022-09-04T19:16:11.642Z,17.82
2022-09-04T19:18:55.202Z,17.83
2022-09-04T19:21:40.491Z,17.78
2022-09-04T19:24:24.902Z,17.56
2022-09-04T19:27:20.554Z,17.73
2022-09-04T19:30:18.681Z,17.83
2022-09-04T19:33:14.907Z,17.87
2022-09-04T19:35:52.102Z,17.77
2022-09-04T19:43:07.610Z,17.67
2022-09-04T19:46:07.831Z,17.59
2022-09-04T19:46:18.138Z,17.67
2022-09-04T19:47:37.267Z,17.50
2022-09-04T19:53:21.496Z,17.20
2022-09-04T19:53:37.852Z,17.52
2022-09-04T19:56:22.524Z,17.56
2022-09-04T19:58:59.811Z,17.41
2022-09-04T20:01:44.995Z,17.41
2022-09-04T20:04:28.780Z,17.22
2022-09-04T20:07:05.280Z,17.34
2022-09-04T20:09:41.226Z,17.03
2022-09-04T20:12:26.719Z,17.10
2022-09-04T20:15:04.568Z,17.01
2022-09-04T20:18:04.198Z,16.96
2022-09-04T20:20:48.774Z,16.94
2022-09-04T20:23:34.274Z,16.90
2022-09-04T20:26:22.049Z,16.89
2022-09-04T20:29:08.504Z,16.87
2022-09-04T20:31:53.856Z,16.95
2022-09-04T20:34:36.178Z,16.90
2022-09-04T20:37:30.110Z,16.84
2022-09-04T20:40:15.254Z,16.98
2022-09-04T20:42:58.560Z,16.98
2022-09-04T20:48:13.936Z,17.01
2022-09-04T20:53:05.732Z,16.93
2022-09-04T20:53:11.987Z,16.93
2022-09-04T20:55:54.784Z,16.72
2022-09-04T21:03:12.415Z,16.86
2022-09-04T21:03:20.864Z,16.74
2022-09-04T21:04:55.699Z,16.72
2022-09-04T21:07:32.460Z,16.75
2022-09-04T21:10:19.096Z,16.86
2022-09-04T21:13:13.867Z,16.79
2022-09-04T21:15:51.197Z,16.70
2022-09-04T21:19:28.795Z,16.59
2022-09-04T21:22:33.236Z,16.53
2022-09-04T21:25:28.654Z,16.58
2022-09-04T21:28:30.283Z,16.58
2022-09-04T21:31:10.400Z,16.53
2022-09-04T21:33:52.392Z,16.38
2022-09-04T21:36:28.685Z,16.32
2022-09-04T21:40:00.841Z,16.39
2022-09-04T21:42:48.465Z,16.54
2022-09-04T21:45:28.279Z,16.39
2022-09-04T21:48:28.238Z,16.36
2022-09-04T21:51:32.583Z,16.46
2022-09-04T21:58:00.495Z,16.31
2022-09-04T22:02:29.650Z,16.22
2022-09-04T22:02:39.688Z,16.15
2022-09-04T22:04:23.731Z,16.09
2022-09-04T22:08:58.769Z,16.14
2022-09-04T22:13:31.926Z,16.15
2022-09-04T22:13:42.964Z,16.04
2022-09-04T22:16:20.615Z,15.99
2022-09-04T22:19:16.181Z,15.68
2022-09-04T22:22:10.748Z,16.00
2022-09-04T22:25:33.236Z,15.91
2022-09-04T22:28:41.314Z,15.89
2022-09-04T22:31:45.647Z,16.10
2022-09-04T22:35:20.543Z,16.05
2022-09-04T22:38:20.552Z,16.02
2022-09-04T22:41:00.454Z,15.93
2022-09-04T22:43:46.471Z,15.89
2022-09-04T22:47:24.536Z,15.82
2022-09-04T22:50:49.317Z,15.74
2022-09-04T22:53:54.427Z,15.84
2022-09-04T22:56:46.995Z,14.72
2022-09-04T23:00:00.142Z,15.65
2022-09-04T23:03:09.858Z,15.66
2022-09-04T23:08:10.503Z,15.58
2022-09-04T23:13:44.173Z,15.56
2022-09-04T23:14:01.167Z,15.54
2022-09-04T23:16:16.990Z,15.66
2022-09-04T23:22:49.300Z,15.64
2022-09-04T23:26:34.207Z,15.44
2022-09-04T23:26:54.235Z,15.60
2022-09-04T23:28:48.252Z,15.47
2022-09-04T23:31:38.766Z,15.42
2022-09-04T23:34:44.030Z,15.47
2022-09-04T23:37:41.427Z,15.32
2022-09-04T23:40:42.075Z,15.30
2022-09-04T23:43:50.088Z,15.30
2022-09-04T23:46:52.217Z,15.23
2022-09-04T23:49:55.044Z,15.22
2022-09-04T23:52:33.358Z,15.21
2022-09-04T23:55:37.312Z,15.21
2022-09-04T23:58:54.518Z,14.76
